Aspen, CO

4:42 AM MDT on August 27, 2014 (GMT -0600)
Tiehack Aspen Colorado | Change Station
CLOSE
Current Station
Personal Weather Station
Location: Aspen, CO
Elevation: 8500 ft
Nearby Weather Stations
Active Advisory: Special Statement

Elev 8500 ft 39.20 °N, 106.85 °W | Updated 16 seconds ago

Overcast
Overcast
48.0 °F
Feels Like 48 °F
N
0.0
Wind Variable Wind from WNW
Gusts 0.0 mph

Today
High -- | Low -- °F
--% Chance of Precip.
Yesterday
High -- | Low -- °F
Precip. -- in
6:31 AM 7:45 PM
Waxing Crescent, 3% visible
Pressure 30.33 in
Visibility 10.0 miles
Clouds Scattered Clouds 1900 ft
Mostly Cloudy 2700 ft
Overcast 6500 ft
Windchill 48 °F
Dew Point 48 °F
Humidity 100%
Rainfall 0.18 in
Snow Depth 189 in , 0 in , 0 in
UV 0 out of 12
Pollen 8.80 out of 12
Air Quality Not available.
Flu Activity Not available.
SPECI KASE 271037Z AUTO 00000KT 10SM SCT019 BKN027 OVC065 11/09 A3033 RMK AO2 RAE23 P0000 T01060094

More Conditions Fewer Conditions

Pressure 30.33 in
Visibility 10.0 miles
Clouds Scattered Clouds 1900 ft
Mostly Cloudy 2700 ft
Overcast 6500 ft
Windchill 48 °F
Dew Point 48 °F
Humidity 100%
Rainfall 0.18 in
Snow Depth 189 in , 0 in , 0 in
UV 0 out of 12
Pollen 8.80 out of 12
Air Quality Not available.
Flu Activity Not available.
SPECI KASE 271037Z AUTO 00000KT 10SM SCT019 BKN027 OVC065 11/09 A3033 RMK AO2 RAE23 P0000 T01060094

More Conditions Fewer Conditions

10-Day Weather Forecast

Almanac

Astronomy

Aug. 27, 2014 Rise Set
Actual Time 6:31 AM MDT 7:45 PM MDT
Civil Twilight 6:03 AM MDT 8:13 PM MDT
Nautical Twilight 5:30 AM MDT 8:46 PM MDT
Astronomical Twilight 4:55 AM MDT 9:20 PM MDT
Moon 8:29 AM MDT 8:40 PM MDT
Length of Visible Light 14h 09m
Length of Day
13h 14m
Tomorrow will be 2m 25s shorter.
Waxing Crescent, 3% of the Moon is Illuminated
Today
Waxing Crescent
Sep 2
First Quarter
Sep 8
Full
Sep 15
Last Quarter
Sep 24
New

Today's Extremes

State Highs State Lows

Community

WunderPhotos

Upload Photos

1,747,666 photos uploaded!

Nearby

Snow Depth

Station Depth Elevation
Independence Pass 189 in 10600 ft
Kiln 0 in 9600 ft
Nast Lake 0 in 8700 ft
Ivanhoe 1 in 10400 ft
Schofield Pass 0 in 10700 ft

Earthquake Activity

City Distance Mag. Time & Date
No recent earthquake activity has been reported nearby.
Minimum magnitude displayed is 2.5.

Coastal Water Temperatures

Place Temperature
No Stations Reporting

Nearby Weather Stations